Time;durP1;ratioP1;P1;durP2;ratioP2;P2;SDS_P1;SDS_P2;PMS_P1;PMS_P2;Temp;Humidity;BMP_temperature;BMP_pressure;BME280_temperature;BME280_humidity;BME280_pressure;Samples;Min_cycle;Max_cycle;Signal;HPM_P1;HPM_P2
2022/04/19 00:00:57;;;;;;;14.02;9.55;;;;;;;;;;5072838;28;20115;-75
2022/04/19 00:03:23;;;;;;;15.40;9.32;;;;;;;;;;5073726;28;20506;-76
2022/04/19 00:05:49;;;;;;;15.23;9.77;;;;;;;;;;5073649;28;20391;-76
2022/04/19 00:08:16;;;;;;;16.27;8.82;;;;;;;;;;5073201;28;20067;-75
2022/04/19 00:10:43;;;;;;;13.57;8.98;;;;;;;;;;5071770;28;20067;-76
2022/04/19 00:13:10;;;;;;;16.55;9.50;;;;;;;;;;5054620;28;20040;-76
2022/04/19 00:15:36;;;;;;;14.65;9.73;;;;;;;;;;5055189;28;20295;-76
2022/04/19 00:18:03;;;;;;;13.55;8.60;;;;;;;;;;5071731;28;20047;-78
2022/04/19 00:20:30;;;;;;;14.13;9.10;;;;;;;;;;5073318;28;20043;-79
2022/04/19 00:22:57;;;;;;;14.35;8.88;;;;;;;;;;5073261;28;20051;-79
2022/04/19 00:25:24;;;;;;;14.65;8.65;;;;;;;;;;5072574;28;20040;-78
2022/04/19 00:27:50;;;;;;;16.80;9.43;;;;;;;;;;5071921;28;20041;-78
2022/04/19 00:30:16;;;;;;;12.15;8.60;;;;;;;;;;5073271;28;20032;-78
2022/04/19 00:32:43;;;;;;;12.73;7.95;;;;;;;;;;5072480;28;20387;-77
2022/04/19 00:35:09;;;;;;;12.77;8.73;;;;;;;;;;5071705;28;20036;-78
2022/04/19 00:37:37;;;;;;;15.20;9.07;;;;;;;;;;5055423;28;20492;-76
2022/04/19 00:40:03;;;;;;;14.15;8.60;;;;;;;;;;5072302;28;20076;-76
2022/04/19 00:42:30;;;;;;;15.05;9.30;;;;;;;;;;5072670;28;20036;-76
2022/04/19 00:44:57;;;;;;;15.45;8.93;;;;;;;;;;5054651;28;20064;-76
2022/04/19 00:47:23;;;;;;;11.57;7.93;;;;;;;;;;5055125;28;20040;-76
2022/04/19 00:49:49;;;;;;;15.80;8.68;;;;;;;;;;5073177;28;20097;-76
2022/04/19 00:52:15;;;;;;;14.05;9.10;;;;;;;;;;5073381;28;20094;-75
2022/04/19 00:54:42;;;;;;;15.07;8.82;;;;;;;;;;5071449;28;20416;-76
2022/04/19 00:57:08;;;;;;;15.13;8.07;;;;;;;;;;5071273;28;20657;-76
2022/04/19 00:59:34;;;;;;;11.32;8.07;;;;;;;;;;5071329;28;20631;-75
2022/04/19 01:02:02;;;;;;;12.63;8.50;;;;;;;;;;5054141;28;20040;-76
2022/04/19 01:04:28;;;;;;;13.20;8.63;;;;;;;;;;5070482;28;20036;-76
2022/04/19 01:06:55;;;;;;;13.00;8.73;;;;;;;;;;5071197;28;20049;-76
2022/04/19 01:09:22;;;;;;;11.60;8.27;;;;;;;;;;5071173;28;20040;-76
2022/04/19 01:14:35;;;;;;;13.88;8.55;;;;;;;;;;5071988;28;20068;-76
2022/04/19 01:17:02;;;;;;;12.20;8.60;;;;;;;;;;5070182;28;20056;-78
2022/04/19 01:19:28;;;;;;;13.30;8.85;;;;;;;;;;5072084;28;20447;-78
2022/04/19 01:21:54;;;;;;;12.55;7.50;;;;;;;;;;5072025;28;20492;-78
2022/04/19 01:24:21;;;;;;;17.20;8.43;;;;;;;;;;5071640;28;20373;-78
2022/04/19 01:26:49;;;;;;;14.25;9.00;;;;;;;;;;5054639;28;20120;-75
2022/04/19 01:29:16;;;;;;;13.95;8.48;;;;;;;;;;5068080;28;20048;-75
2022/04/19 01:31:43;;;;;;;16.27;9.02;;;;;;;;;;5070530;28;20123;-76
2022/04/19 01:34:10;;;;;;;12.82;8.70;;;;;;;;;;5070267;28;20048;-75
2022/04/19 01:36:36;;;;;;;14.02;9.50;;;;;;;;;;5070385;28;20044;-75
2022/04/19 01:39:10;;;;;;;13.55;8.85;;;;;;;;;;5071525;28;20036;-75
2022/04/19 01:41:37;;;;;;;13.45;8.60;;;;;;;;;;5071681;28;20040;-75
2022/04/19 01:44:05;;;;;;;14.90;8.68;;;;;;;;;;5069923;28;20114;-75
2022/04/19 01:46:34;;;;;;;14.82;9.23;;;;;;;;;;5070441;28;20136;-76
2022/04/19 01:49:04;;;;;;;13.23;8.80;;;;;;;;;;5064437;28;20043;-76
2022/04/19 01:51:30;;;;;;;14.00;9.02;;;;;;;;;;5068980;28;20387;-78
2022/04/19 01:53:57;;;;;;;12.50;9.38;;;;;;;;;;5070377;28;20083;-78
2022/04/19 01:56:23;;;;;;;13.98;9.20;;;;;;;;;;5069867;28;20083;-76
2022/04/19 01:58:49;;;;;;;13.02;7.93;;;;;;;;;;5071117;28;20728;-76
2022/04/19 02:01:16;;;;;;;14.52;9.02;;;;;;;;;;5066060;28;20051;-79
2022/04/19 02:03:42;;;;;;;14.48;9.27;;;;;;;;;;5068722;28;20048;-79
2022/04/19 02:06:08;;;;;;;13.65;8.90;;;;;;;;;;5068856;28;20076;-79
2022/04/19 02:08:34;;;;;;;13.52;8.85;;;;;;;;;;5070093;28;20040;-76
2022/04/19 02:11:00;;;;;;;14.18;9.30;;;;;;;;;;5070968;28;20044;-75
2022/04/19 02:13:27;;;;;;;13.77;8.90;;;;;;;;;;5069883;28;20079;-75
2022/04/19 02:15:53;;;;;;;14.40;8.60;;;;;;;;;;5051722;28;20049;-75
2022/04/19 02:18:20;;;;;;;13.98;8.73;;;;;;;;;;5068917;28;20043;-76
2022/04/19 02:20:46;;;;;;;13.80;9.23;;;;;;;;;;5069481;28;20071;-76
2022/04/19 02:23:13;;;;;;;12.32;8.70;;;;;;;;;;5069387;28;20507;-76
2022/04/19 02:25:39;;;;;;;11.95;8.68;;;;;;;;;;5069416;28;20040;-75
2022/04/19 02:28:07;;;;;;;12.75;8.68;;;;;;;;;;5052551;28;20087;-76
2022/04/19 02:30:33;;;;;;;12.00;8.57;;;;;;;;;;5069406;28;20044;-76
2022/04/19 02:33:02;;;;;;;15.48;10.10;;;;;;;;;;5069325;28;20036;-75
2022/04/19 02:35:28;;;;;;;14.07;9.80;;;;;;;;;;5070840;28;20048;-77
2022/04/19 02:37:58;;;;;;;16.02;10.10;;;;;;;;;;5070476;28;20123;-78
2022/04/19 02:40:25;;;;;;;16.02;9.02;;;;;;;;;;5070271;28;20052;-77
2022/04/19 02:42:53;;;;;;;16.75;9.70;;;;;;;;;;5070498;28;20507;-78
2022/04/19 02:45:20;;;;;;;16.58;9.80;;;;;;;;;;5070073;28;20401;-78
2022/04/19 02:47:47;;;;;;;17.52;11.10;;;;;;;;;;5070472;28;20040;-78
2022/04/19 02:50:16;;;;;;;16.00;10.88;;;;;;;;;;5052086;28;20045;-75
2022/04/19 02:52:42;;;;;;;17.10;10.15;;;;;;;;;;5070335;28;20045;-75
2022/04/19 02:55:08;;;;;;;17.95;10.88;;;;;;;;;;5052118;28;20145;-75
2022/04/19 02:57:34;;;;;;;19.90;11.68;;;;;;;;;;5068375;28;20119;-75
2022/04/19 03:00:01;;;;;;;19.55;10.35;;;;;;;;;;5068652;28;20036;-75
2022/04/19 03:02:27;;;;;;;18.77;10.40;;;;;;;;;;5052333;28;20041;-75
2022/04/19 03:04:53;;;;;;;18.42;11.07;;;;;;;;;;5068581;28;20036;-75
2022/04/19 03:07:19;;;;;;;17.05;10.70;;;;;;;;;;5068505;28;20484;-75
2022/04/19 03:09:46;;;;;;;18.02;11.60;;;;;;;;;;5068723;28;20048;-75
2022/04/19 03:12:14;;;;;;;19.85;12.18;;;;;;;;;;5068587;28;20036;-75
2022/04/19 03:14:41;;;;;;;16.75;11.20;;;;;;;;;;5068804;28;20051;-77
2022/04/19 03:17:07;;;;;;;21.02;11.73;;;;;;;;;;5052006;28;20499;-78
2022/04/19 03:19:34;;;;;;;17.20;11.27;;;;;;;;;;5068795;28;20024;-75
2022/04/19 03:22:00;;;;;;;19.85;11.52;;;;;;;;;;5068879;28;20079;-75
2022/04/19 03:29:52;;;;;;;17.38;11.00;;;;;;;;;;5068584;28;20044;-75
2022/04/19 03:32:19;;;;;;;16.42;10.77;;;;;;;;;;5068875;28;20033;-75
2022/04/19 03:34:50;;;;;;;17.88;11.40;;;;;;;;;;5051445;28;20036;-75
2022/04/19 03:37:16;;;;;;;20.73;12.02;;;;;;;;;;5068361;28;20334;-75
2022/04/19 03:39:42;;;;;;;17.33;10.95;;;;;;;;;;5067182;28;20088;-75
2022/04/19 03:42:09;;;;;;;19.00;11.85;;;;;;;;;;5049292;28;20500;-75
2022/04/19 03:44:35;;;;;;;18.02;12.23;;;;;;;;;;5066525;28;20380;-75
2022/04/19 03:47:07;;;;;;;16.13;11.20;;;;;;;;;;5065927;28;20032;-75
2022/04/19 03:49:33;;;;;;;17.67;11.30;;;;;;;;;;5067226;28;20434;-75
2022/04/19 03:51:59;;;;;;;19.50;11.80;;;;;;;;;;5051310;28;20052;-75
2022/04/19 03:54:25;;;;;;;19.33;11.20;;;;;;;;;;5068001;28;20143;-75
2022/04/19 03:56:52;;;;;;;22.45;12.15;;;;;;;;;;5068118;28;20052;-75
2022/04/19 03:59:18;;;;;;;19.98;11.68;;;;;;;;;;5067886;28;20112;-75
2022/04/19 04:01:44;;;;;;;21.08;12.85;;;;;;;;;;5065538;28;20047;-75
2022/04/19 04:04:11;;;;;;;19.73;12.20;;;;;;;;;;5050706;28;20484;-75
2022/04/19 04:06:37;;;;;;;18.45;10.80;;;;;;;;;;5068251;28;20403;-75
2022/04/19 04:09:06;;;;;;;19.90;11.38;;;;;;;;;;5068510;28;20507;-75
2022/04/19 04:11:32;;;;;;;19.35;12.38;;;;;;;;;;5068950;28;20573;-75
2022/04/19 04:13:58;;;;;;;17.55;11.60;;;;;;;;;;5068330;28;20466;-76
2022/04/19 04:16:24;;;;;;;16.35;9.90;;;;;;;;;;5068027;28;20091;-76
2022/04/19 04:18:50;;;;;;;19.30;12.38;;;;;;;;;;5051478;28;20043;-76
2022/04/19 04:21:17;;;;;;;20.40;12.27;;;;;;;;;;5067450;28;20090;-76
2022/04/19 04:23:43;;;;;;;20.23;12.38;;;;;;;;;;5068174;28;20086;-76
2022/04/19 04:26:09;;;;;;;21.92;12.73;;;;;;;;;;5067668;28;20084;-76
2022/04/19 04:28:35;;;;;;;21.52;12.90;;;;;;;;;;5051667;28;20491;-76
2022/04/19 04:31:02;;;;;;;20.05;12.85;;;;;;;;;;5067225;28;20396;-75
2022/04/19 04:33:28;;;;;;;18.85;11.98;;;;;;;;;;5068433;28;20040;-76
2022/04/19 04:35:54;;;;;;;21.05;12.00;;;;;;;;;;5068338;28;20037;-75
2022/04/19 04:38:20;;;;;;;20.52;11.60;;;;;;;;;;5067544;28;20033;-76
2022/04/19 04:40:46;;;;;;;19.40;11.70;;;;;;;;;;5072588;28;20500;-77
2022/04/19 04:43:12;;;;;;;21.80;13.15;;;;;;;;;;5072419;28;20032;-78
2022/04/19 04:45:38;;;;;;;20.08;13.20;;;;;;;;;;5054997;28;20060;-78
2022/04/19 04:50:49;;;;;;;20.10;12.25;;;;;;;;;;5072112;28;20484;-78
2022/04/19 04:53:15;;;;;;;23.63;13.05;;;;;;;;;;5071335;28;20037;-78
2022/04/19 04:55:42;;;;;;;20.77;12.52;;;;;;;;;;5071453;28;20040;-76
2022/04/19 04:58:10;;;;;;;21.45;12.43;;;;;;;;;;5071132;28;20068;-79
2022/04/19 05:00:36;;;;;;;22.48;13.30;;;;;;;;;;5071309;28;20146;-79
2022/04/19 05:03:02;;;;;;;21.65;12.93;;;;;;;;;;5054224;28;20052;-76
2022/04/19 05:05:28;;;;;;;19.70;12.05;;;;;;;;;;5054409;28;20107;-76
2022/04/19 05:07:54;;;;;;;21.95;13.35;;;;;;;;;;5071239;28;20396;-76
2022/04/19 05:10:20;;;;;;;21.40;12.68;;;;;;;;;;5054506;28;20489;-79
2022/04/19 05:12:47;;;;;;;21.70;13.52;;;;;;;;;;5070822;28;20047;-79
2022/04/19 05:15:13;;;;;;;22.85;13.75;;;;;;;;;;5054188;28;20041;-78
2022/04/19 05:17:39;;;;;;;18.63;12.35;;;;;;;;;;5070607;28;20555;-79
2022/04/19 05:20:09;;;;;;;21.35;12.57;;;;;;;;;;5071857;28;20197;-79
2022/04/19 05:22:35;;;;;;;19.13;12.13;;;;;;;;;;5070526;28;20048;-78
2022/04/19 05:25:01;;;;;;;19.27;11.93;;;;;;;;;;5072066;28;20045;-79
2022/04/19 05:27:27;;;;;;;18.35;11.88;;;;;;;;;;5053775;28;20044;-79
2022/04/19 05:29:53;;;;;;;19.58;12.15;;;;;;;;;;5070532;28;20059;-79
2022/04/19 05:32:20;;;;;;;20.65;12.00;;;;;;;;;;5070167;28;20063;-78
2022/04/19 05:34:48;;;;;;;18.45;12.02;;;;;;;;;;5053658;28;20036;-79
2022/04/19 05:37:14;;;;;;;18.10;11.98;;;;;;;;;;5070363;28;20076;-79
2022/04/19 05:39:40;;;;;;;15.70;11.38;;;;;;;;;;5070565;28;20040;-79
2022/04/19 05:42:06;;;;;;;17.40;11.73;;;;;;;;;;5071702;28;20444;-80
2022/04/19 05:44:32;;;;;;;18.45;11.80;;;;;;;;;;5070340;28;20036;-77
2022/04/19 05:46:58;;;;;;;17.42;12.00;;;;;;;;;;5053679;28;20044;-79
2022/04/19 05:49:24;;;;;;;18.77;12.20;;;;;;;;;;5053154;28;20048;-79
2022/04/19 05:51:51;;;;;;;17.55;11.10;;;;;;;;;;5070141;28;20040;-80
2022/04/19 05:54:17;;;;;;;16.88;11.25;;;;;;;;;;5070903;28;20083;-80
2022/04/19 05:56:43;;;;;;;15.63;10.77;;;;;;;;;;5070325;28;20041;-80
2022/04/19 05:59:09;;;;;;;18.63;10.95;;;;;;;;;;5069789;28;20119;-80
2022/04/19 06:07:05;;;;;;;15.65;10.70;;;;;;;;;;5069960;28;20040;-78
2022/04/19 06:09:31;;;;;;;19.15;10.80;;;;;;;;;;5070989;28;20044;-78
2022/04/19 06:11:57;;;;;;;15.55;11.45;;;;;;;;;;5070301;28;20135;-78
2022/04/19 06:14:23;;;;;;;16.15;10.77;;;;;;;;;;5069728;28;20044;-78
2022/04/19 06:16:49;;;;;;;16.42;10.35;;;;;;;;;;5053026;28;20043;-80
2022/04/19 06:19:15;;;;;;;14.40;10.30;;;;;;;;;;5070962;28;20028;-79
2022/04/19 06:21:41;;;;;;;15.63;10.10;;;;;;;;;;5069826;28;20101;-80
2022/04/19 06:24:08;;;;;;;14.50;10.57;;;;;;;;;;5070037;28;20033;-79
2022/04/19 06:26:34;;;;;;;17.80;11.20;;;;;;;;;;5052825;28;20119;-79
2022/04/19 06:29:01;;;;;;;14.07;10.60;;;;;;;;;;5052223;28;20033;-79
2022/04/19 06:31:27;;;;;;;14.40;10.55;;;;;;;;;;5068960;28;20052;-79
2022/04/19 06:33:54;;;;;;;16.15;10.60;;;;;;;;;;5069092;28;20090;-77
2022/04/19 06:36:20;;;;;;;13.68;10.25;;;;;;;;;;5069997;28;20040;-77
2022/04/19 06:38:46;;;;;;;12.90;9.85;;;;;;;;;;5068899;28;20037;-78
2022/04/19 06:41:12;;;;;;;16.45;10.50;;;;;;;;;;5069388;28;20511;-80
2022/04/19 06:43:38;;;;;;;16.75;9.77;;;;;;;;;;5052384;28;20082;-78
2022/04/19 06:46:04;;;;;;;14.50;10.45;;;;;;;;;;5035893;28;20059;-80
2022/04/19 06:48:31;;;;;;;14.00;10.48;;;;;;;;;;5069219;28;20119;-80
2022/04/19 06:50:58;;;;;;;16.42;11.00;;;;;;;;;;5070265;28;20399;-78
2022/04/19 06:53:26;;;;;;;13.68;10.30;;;;;;;;;;5068285;28;20058;-79
2022/04/19 06:55:52;;;;;;;14.65;10.20;;;;;;;;;;5069661;28;20046;-82
2022/04/19 06:58:18;;;;;;;13.05;9.43;;;;;;;;;;5069691;28;20549;-80
2022/04/19 07:00:45;;;;;;;13.68;10.10;;;;;;;;;;5069070;28;20395;-81
2022/04/19 07:03:11;;;;;;;16.27;10.65;;;;;;;;;;5068096;28;20048;-79
2022/04/19 07:05:38;;;;;;;16.00;10.02;;;;;;;;;;5070017;28;20447;-78
2022/04/19 07:08:05;;;;;;;16.58;10.65;;;;;;;;;;5070298;28;20090;-75
2022/04/19 07:10:31;;;;;;;14.85;9.52;;;;;;;;;;5070319;28;20040;-74
2022/04/19 07:12:57;;;;;;;15.65;10.27;;;;;;;;;;5070365;28;20043;-75
2022/04/19 07:15:23;;;;;;;15.35;10.77;;;;;;;;;;5069830;28;20032;-75
2022/04/19 07:17:49;;;;;;;15.27;10.18;;;;;;;;;;5069067;28;20071;-81
2022/04/19 07:28:35;;;;;;;13.27;9.45;;;;;;;;;;5070940;28;20040;-84
2022/04/19 07:31:02;;;;;;;13.55;9.63;;;;;;;;;;5069769;28;20032;-83
2022/04/19 07:33:29;;;;;;;13.45;8.48;;;;;;;;;;5070389;28;20045;-80
2022/04/19 07:35:55;;;;;;;13.20;8.65;;;;;;;;;;5071685;28;20545;-79
2022/04/19 07:38:22;;;;;;;11.85;8.43;;;;;;;;;;5071480;28;20044;-74
2022/04/19 07:40:49;;;;;;;11.70;7.70;;;;;;;;;;5070659;28;20045;-73
2022/04/19 07:43:15;;;;;;;12.63;8.27;;;;;;;;;;5068923;28;20090;-74
2022/04/19 07:45:41;;;;;;;13.05;8.50;;;;;;;;;;5069445;28;20391;-73
2022/04/19 07:48:07;;;;;;;11.80;7.95;;;;;;;;;;5052226;28;20076;-75
2022/04/19 07:50:34;;;;;;;11.38;7.20;;;;;;;;;;5068703;28;20046;-76
2022/04/19 07:53:00;;;;;;;14.10;8.30;;;;;;;;;;5068316;28;20087;-73
2022/04/19 07:55:27;;;;;;;12.65;7.47;;;;;;;;;;5068615;28;20056;-74
2022/04/19 07:57:54;;;;;;;10.85;7.30;;;;;;;;;;5068871;28;20048;-74
2022/04/19 08:00:21;;;;;;;11.27;7.13;;;;;;;;;;5068578;28;20049;-74
2022/04/19 08:02:47;;;;;;;10.48;7.68;;;;;;;;;;5052186;28;20047;-80
2022/04/19 08:05:13;;;;;;;11.55;7.60;;;;;;;;;;5069153;28;20279;-83
2022/04/19 08:07:40;;;;;;;11.32;7.18;;;;;;;;;;5070736;28;20119;-82
2022/04/19 08:10:06;;;;;;;12.88;7.13;;;;;;;;;;5070158;28;20498;-83
2022/04/19 08:12:33;;;;;;;10.38;7.30;;;;;;;;;;5068690;28;20036;-81
2022/04/19 08:14:59;;;;;;;11.98;7.60;;;;;;;;;;5072124;28;20040;-82
2022/04/19 08:17:25;;;;;;;10.98;7.35;;;;;;;;;;5072481;28;20051;-81
2022/04/19 08:19:51;;;;;;;9.85;7.05;;;;;;;;;;5072144;28;20119;-80
2022/04/19 08:22:17;;;;;;;10.70;7.45;;;;;;;;;;5056021;28;20040;-83
2022/04/19 08:24:43;;;;;;;13.52;7.10;;;;;;;;;;5072203;28;20468;-82
2022/04/19 08:27:09;;;;;;;9.40;6.97;;;;;;;;;;5072862;28;20072;-81
2022/04/19 08:29:35;;;;;;;10.65;7.18;;;;;;;;;;5071955;28;20040;-82
2022/04/19 08:32:01;;;;;;;12.00;7.22;;;;;;;;;;5055256;28;20048;-79
2022/04/19 08:34:28;;;;;;;11.50;6.95;;;;;;;;;;5072478;28;20028;-77
2022/04/19 08:36:54;;;;;;;9.75;6.65;;;;;;;;;;5071857;28;20511;-83
2022/04/19 08:39:20;;;;;;;10.80;6.50;;;;;;;;;;5054732;28;20041;-78
2022/04/19 08:41:46;;;;;;;10.90;6.88;;;;;;;;;;5071768;28;20033;-81
2022/04/19 08:44:14;;;;;;;12.77;6.68;;;;;;;;;;5071621;28;20040;-83
2022/04/19 08:46:40;;;;;;;10.63;6.82;;;;;;;;;;5071333;28;20102;-78
2022/04/19 08:49:06;;;;;;;11.38;6.90;;;;;;;;;;5072497;28;20044;-83
2022/04/19 08:51:34;;;;;;;9.80;6.90;;;;;;;;;;5073139;28;20527;-81
2022/04/19 08:59:31;;;;;;;10.13;6.47;;;;;;;;;;5071654;28;20458;-83
2022/04/19 09:01:58;;;;;;;9.70;6.18;;;;;;;;;;5055661;28;20120;-82
2022/04/19 09:04:25;;;;;;;9.23;5.70;;;;;;;;;;5072958;28;20075;-81
2022/04/19 09:06:59;;;;;;;9.50;5.22;;;;;;;;;;5072086;28;20052;-74
2022/04/19 09:09:26;;;;;;;7.93;5.00;;;;;;;;;;5069514;28;20040;-74
2022/04/19 09:11:52;;;;;;;9.10;4.68;;;;;;;;;;5071298;28;20078;-75
2022/04/19 09:14:19;;;;;;;6.60;3.97;;;;;;;;;;5070598;28;20044;-75
2022/04/19 09:16:45;;;;;;;7.63;4.20;;;;;;;;;;5071277;28;20090;-74
2022/04/19 09:19:27;;;;;;;6.85;4.18;;;;;;;;;;5070957;28;20128;-74
2022/04/19 09:21:53;;;;;;;6.22;3.83;;;;;;;;;;5067359;28;20043;-72
2022/04/19 09:24:20;;;;;;;7.13;3.95;;;;;;;;;;5070336;28;20044;-76
2022/04/19 09:26:48;;;;;;;6.88;3.80;;;;;;;;;;5071238;28;20036;-80
2022/04/19 09:29:21;;;;;;;6.60;3.80;;;;;;;;;;5070868;28;20066;-75
2022/04/19 09:31:50;;;;;;;5.65;3.85;;;;;;;;;;5054371;28;20097;-73
2022/04/19 09:34:28;;;;;;;6.18;4.00;;;;;;;;;;5071904;28;20044;-74
2022/04/19 09:37:14;;;;;;;6.95;3.90;;;;;;;;;;5069944;28;20302;-74
2022/04/19 09:39:41;;;;;;;6.32;3.83;;;;;;;;;;5071661;28;20102;-74
2022/04/19 09:42:07;;;;;;;6.53;4.03;;;;;;;;;;5071082;28;20103;-74
2022/04/19 09:44:37;;;;;;;5.88;3.80;;;;;;;;;;5053707;28;20036;-73
2022/04/19 09:47:08;;;;;;;5.55;3.65;;;;;;;;;;5070920;28;20537;-73
2022/04/19 09:49:41;;;;;;;6.50;3.90;;;;;;;;;;5053882;28;20480;-73
2022/04/19 09:52:07;;;;;;;7.30;4.13;;;;;;;;;;5071418;28;20125;-79
2022/04/19 09:54:34;;;;;;;6.10;3.92;;;;;;;;;;5069420;28;20052;-78
2022/04/19 09:57:07;;;;;;;6.20;3.88;;;;;;;;;;5070642;28;20508;-82
2022/04/19 09:59:38;;;;;;;8.27;3.45;;;;;;;;;;5054336;28;20036;-79
2022/04/19 10:10:19;;;;;;;7.70;3.92;;;;;;;;;;5071298;28;20048;-81
2022/04/19 10:12:46;;;;;;;5.40;3.63;;;;;;;;;;5071806;28;20033;-74
2022/04/19 10:15:12;;;;;;;5.80;3.28;;;;;;;;;;5052946;28;20044;-76
2022/04/19 10:17:39;;;;;;;5.00;3.25;;;;;;;;;;5069997;28;20055;-75
2022/04/19 10:20:07;;;;;;;4.97;3.22;;;;;;;;;;5070186;28;20484;-73
2022/04/19 10:22:33;;;;;;;5.45;2.28;;;;;;;;;;5071584;28;20052;-83
2022/04/19 10:25:02;;;;;;;5.70;2.30;;;;;;;;;;5071395;28;20082;-83
2022/04/19 10:27:33;;;;;;;4.72;2.17;;;;;;;;;;5070530;28;20377;-84
2022/04/19 10:30:00;;;;;;;5.55;1.90;;;;;;;;;;5047013;28;20492;-82
2022/04/19 10:32:33;;;;;;;3.75;1.92;;;;;;;;;;5053012;28;20129;-83
2022/04/19 10:35:06;;;;;;;3.95;1.77;;;;;;;;;;5053302;28;20114;-81
2022/04/19 10:37:32;;;;;;;3.28;1.70;;;;;;;;;;5067229;28;20045;-79
2022/04/19 10:39:58;;;;;;;5.18;2.03;;;;;;;;;;5069356;28;20046;-80
2022/04/19 10:42:29;;;;;;;2.60;1.80;;;;;;;;;;5053772;28;20048;-82
2022/04/19 10:44:55;;;;;;;3.45;1.92;;;;;;;;;;5068927;28;20684;-82
2022/04/19 10:47:23;;;;;;;3.28;1.70;;;;;;;;;;5070610;28;20044;-83
2022/04/19 10:49:50;;;;;;;5.07;1.58;;;;;;;;;;5053103;28;20043;-78
2022/04/19 10:52:35;;;;;;;5.10;1.50;;;;;;;;;;5070004;28;20099;-82
2022/04/19 10:55:06;;;;;;;4.10;2.00;;;;;;;;;;5051720;28;20122;-82
2022/04/19 11:00:43;;;;;;;4.72;1.88;;;;;;;;;;5067530;28;20048;-80
2022/04/19 11:03:09;;;;;;;4.25;1.65;;;;;;;;;;5069478;28;20032;-74
2022/04/19 11:05:43;;;;;;;4.55;1.80;;;;;;;;;;5069124;28;20036;-73
2022/04/19 11:08:23;;;;;;;5.93;2.47;;;;;;;;;;5052485;28;20047;-76
2022/04/19 11:10:50;;;;;;;4.63;1.60;;;;;;;;;;5070315;28;20039;-76
2022/04/19 11:13:16;;;;;;;3.38;1.70;;;;;;;;;;5052355;28;20085;-73
2022/04/19 11:15:42;;;;;;;4.75;1.70;;;;;;;;;;5070279;28;20128;-74
2022/04/19 11:18:24;;;;;;;3.85;1.50;;;;;;;;;;5068733;28;20044;-72
2022/04/19 11:20:51;;;;;;;5.13;1.50;;;;;;;;;;5069445;28;20041;-73
2022/04/19 11:23:18;;;;;;;3.10;1.55;;;;;;;;;;5068739;28;20135;-80
2022/04/19 11:25:45;;;;;;;3.90;1.70;;;;;;;;;;5071560;28;20032;-78
2022/04/19 11:28:12;;;;;;;3.17;1.30;;;;;;;;;;5071068;28;20047;-76
2022/04/19 11:30:43;;;;;;;3.50;1.98;;;;;;;;;;5070450;28;20036;-74
2022/04/19 11:33:09;;;;;;;10.18;2.10;;;;;;;;;;5069294;28;20040;-81
2022/04/19 11:35:36;;;;;;;3.42;2.10;;;;;;;;;;5069611;28;20041;-83
2022/04/19 11:38:08;;;;;;;3.15;1.80;;;;;;;;;;5069645;28;20044;-82
2022/04/19 11:49:03;;;;;;;8.07;2.30;;;;;;;;;;5073252;28;20048;-80
2022/04/19 11:51:30;;;;;;;4.38;2.05;;;;;;;;;;5074442;28;20484;-82
2022/04/19 11:53:56;;;;;;;3.22;1.70;;;;;;;;;;5057464;28;20061;-76
2022/04/19 11:56:22;;;;;;;5.20;2.03;;;;;;;;;;5038856;28;20048;-77
2022/04/19 11:58:52;;;;;;;3.10;1.80;;;;;;;;;;5056870;28;20044;-81
2022/04/19 12:01:19;;;;;;;3.45;2.03;;;;;;;;;;5072550;28;20076;-74
2022/04/19 12:03:45;;;;;;;3.60;1.88;;;;;;;;;;5074015;28;20491;-73
2022/04/19 12:06:11;;;;;;;4.63;1.98;;;;;;;;;;5055680;28;20067;-77
2022/04/19 12:08:39;;;;;;;4.13;2.30;;;;;;;;;;5072607;28;20440;-75
2022/04/19 12:11:07;;;;;;;5.10;2.35;;;;;;;;;;5074059;28;20032;-74
2022/04/19 12:13:33;;;;;;;3.67;2.17;;;;;;;;;;5072188;28;20400;-73
2022/04/19 12:16:00;;;;;;;2.92;1.88;;;;;;;;;;5072727;28;20036;-82
2022/04/19 12:18:30;;;;;;;3.58;2.03;;;;;;;;;;5073776;28;20484;-80
2022/04/19 12:20:56;;;;;;;5.55;2.20;;;;;;;;;;5073305;28;20484;-73
2022/04/19 12:23:23;;;;;;;4.10;2.22;;;;;;;;;;5055289;28;20043;-75
2022/04/19 12:26:02;;;;;;;4.47;1.75;;;;;;;;;;5073474;28;20068;-74
2022/04/19 12:28:38;;;;;;;4.55;1.60;;;;;;;;;;5073039;28;20082;-73
2022/04/19 12:31:04;;;;;;;3.38;1.92;;;;;;;;;;5073267;28;20507;-73
2022/04/19 12:33:31;;;;;;;4.18;1.65;;;;;;;;;;5071724;28;20039;-75
2022/04/19 12:35:58;;;;;;;2.88;1.70;;;;;;;;;;5072411;28;20438;-74
2022/04/19 12:38:31;;;;;;;3.00;1.80;;;;;;;;;;5055123;28;20045;-74
2022/04/19 12:40:58;;;;;;;3.75;2.00;;;;;;;;;;5073519;28;20032;-82
2022/04/19 12:43:43;;;;;;;4.72;1.50;;;;;;;;;;5072118;28;20538;-84
2022/04/19 12:46:09;;;;;;;5.63;1.77;;;;;;;;;;5056305;28;20120;-82
2022/04/19 12:48:35;;;;;;;2.85;1.60;;;;;;;;;;5073607;28;20283;-80
2022/04/19 12:51:02;;;;;;;2.83;1.77;;;;;;;;;;5072817;28;20404;-81
2022/04/19 12:53:28;;;;;;;3.47;1.65;;;;;;;;;;5055386;28;20078;-80
2022/04/19 12:55:54;;;;;;;6.47;2.08;;;;;;;;;;5072291;28;20044;-84
2022/04/19 12:58:20;;;;;;;4.90;1.80;;;;;;;;;;5072897;28;20075;-81
2022/04/19 13:00:46;;;;;;;3.03;1.60;;;;;;;;;;5071967;28;20043;-81
2022/04/19 13:03:14;;;;;;;7.93;1.90;;;;;;;;;;5073347;28;20487;-83
2022/04/19 13:13:58;;;;;;;2.83;1.63;;;;;;;;;;5071651;28;20036;-74
2022/04/19 13:16:24;;;;;;;3.92;2.30;;;;;;;;;;5071148;28;20040;-74
2022/04/19 13:18:51;;;;;;;5.90;2.20;;;;;;;;;;5071259;28;20036;-74
2022/04/19 13:21:17;;;;;;;11.63;2.75;;;;;;;;;;5038590;28;20468;-81
2022/04/19 13:23:43;;;;;;;5.57;1.85;;;;;;;;;;5038289;28;20036;-83
2022/04/19 13:26:09;;;;;;;3.55;2.00;;;;;;;;;;5071223;28;20063;-83
2022/04/19 13:28:35;;;;;;;4.25;1.83;;;;;;;;;;5054489;28;20149;-80
2022/04/19 13:31:01;;;;;;;3.05;1.60;;;;;;;;;;5072264;28;20055;-82
2022/04/19 13:33:28;;;;;;;4.43;1.90;;;;;;;;;;5072102;28;20400;-81
2022/04/19 13:35:54;;;;;;;5.95;2.00;;;;;;;;;;5055495;28;20093;-79
2022/04/19 13:38:23;;;;;;;4.30;1.92;;;;;;;;;;5072519;28;20063;-82
2022/04/19 13:40:49;;;;;;;3.15;2.00;;;;;;;;;;5072186;28;20115;-84
2022/04/19 13:43:16;;;;;;;3.80;1.90;;;;;;;;;;5072701;28;20062;-80
2022/04/19 13:45:42;;;;;;;3.20;2.30;;;;;;;;;;5071917;28;20075;-81
2022/04/19 13:48:08;;;;;;;4.25;2.55;;;;;;;;;;5072048;28;20183;-83
2022/04/19 13:50:35;;;;;;;5.78;2.50;;;;;;;;;;5054255;28;20055;-83
2022/04/19 13:53:01;;;;;;;3.67;2.50;;;;;;;;;;5070985;28;20129;-83
2022/04/19 13:55:28;;;;;;;4.03;2.30;;;;;;;;;;5070658;28;20114;-83
2022/04/19 13:57:55;;;;;;;5.15;2.17;;;;;;;;;;5070506;28;20044;-83
2022/04/19 14:00:23;;;;;;;4.20;2.22;;;;;;;;;;5070190;28;20072;-84
2022/04/19 14:02:49;;;;;;;4.18;2.30;;;;;;;;;;5071597;28;20067;-80
2022/04/19 14:05:16;;;;;;;5.03;2.30;;;;;;;;;;5072627;28;20059;-83
2022/04/19 14:07:42;;;;;;;5.20;2.38;;;;;;;;;;5071856;28;20444;-82
2022/04/19 14:10:09;;;;;;;3.78;1.95;;;;;;;;;;5069183;28;20044;-81
2022/04/19 14:12:35;;;;;;;5.72;1.80;;;;;;;;;;5054393;28;20048;-82
2022/04/19 14:15:01;;;;;;;5.25;2.00;;;;;;;;;;5070057;28;20492;-79
2022/04/19 14:17:27;;;;;;;3.00;1.70;;;;;;;;;;5069756;28;20401;-74
2022/04/19 14:19:54;;;;;;;5.93;1.77;;;;;;;;;;5070125;28;20645;-75
2022/04/19 14:22:21;;;;;;;4.50;2.05;;;;;;;;;;5069843;28;20204;-73
2022/04/19 14:24:47;;;;;;;4.55;1.73;;;;;;;;;;5070132;28;20040;-74
2022/04/19 14:27:13;;;;;;;4.05;1.80;;;;;;;;;;5069794;28;20044;-81
2022/04/19 14:35:08;;;;;;;4.28;1.80;;;;;;;;;;5071510;28;20123;-78
2022/04/19 14:37:35;;;;;;;3.85;1.90;;;;;;;;;;5069944;28;20098;-79
2022/04/19 14:40:01;;;;;;;8.20;2.25;;;;;;;;;;5069705;28;20079;-80
2022/04/19 14:42:28;;;;;;;6.70;2.42;;;;;;;;;;5070817;28;20051;-83
2022/04/19 14:44:54;;;;;;;3.95;2.00;;;;;;;;;;5070307;28;20119;-82
2022/04/19 14:47:20;;;;;;;4.57;2.40;;;;;;;;;;5070478;28;20040;-80
2022/04/19 14:49:46;;;;;;;7.15;2.20;;;;;;;;;;5069328;28;20036;-83
2022/04/19 14:52:18;;;;;;;4.07;2.05;;;;;;;;;;5069359;28;20141;-84
2022/04/19 14:54:49;;;;;;;4.03;2.30;;;;;;;;;;5069309;28;20053;-81
2022/04/19 14:57:16;;;;;;;4.32;2.20;;;;;;;;;;5070000;28;20048;-84
2022/04/19 14:59:42;;;;;;;4.07;2.50;;;;;;;;;;5064957;28;20037;-82
2022/04/19 15:02:08;;;;;;;4.40;2.70;;;;;;;;;;5052655;28;20043;-80
2022/04/19 15:04:35;;;;;;;3.97;2.13;;;;;;;;;;5069750;28;20083;-83
2022/04/19 15:07:21;;;;;;;7.18;2.55;;;;;;;;;;5052795;28;20491;-82
2022/04/19 15:09:48;;;;;;;;;;;;;;;;;;5071354;28;20049;-84
2022/04/19 15:12:16;;;;;;;4.60;2.30;;;;;;;;;;5070609;28;19923;-83
2022/04/19 15:14:42;;;;;;;5.25;2.60;;;;;;;;;;5069881;28;20051;-84
2022/04/19 15:17:08;;;;;;;4.45;2.60;;;;;;;;;;5069388;28;20036;-83
2022/04/19 15:19:34;;;;;;;3.75;2.65;;;;;;;;;;5069318;28;20154;-79
2022/04/19 15:22:00;;;;;;;5.25;2.67;;;;;;;;;;5069791;28;20033;-79
2022/04/19 15:24:27;;;;;;;3.45;2.33;;;;;;;;;;5052835;28;20131;-82
2022/04/19 15:26:53;;;;;;;4.03;2.58;;;;;;;;;;5069431;28;20043;-82
2022/04/19 15:29:19;;;;;;;7.13;2.50;;;;;;;;;;5068359;28;20055;-76
2022/04/19 15:31:46;;;;;;;5.38;2.47;;;;;;;;;;5051872;28;20036;-74
2022/04/19 15:34:12;;;;;;;5.88;2.95;;;;;;;;;;5068612;28;20052;-74